createdAt,value
2023-02-06T00:01:48.755Z,9.50
2023-02-06T00:04:18.159Z,9.90
2023-02-06T00:06:47.484Z,10.10
2023-02-06T00:09:18.086Z,10.00
2023-02-06T00:11:49.043Z,11.00
2023-02-06T00:14:17.610Z,10.50
2023-02-06T00:17:06.467Z,9.50
2023-02-06T00:19:35.564Z,6.80
2023-02-06T00:22:04.745Z,8.40
2023-02-06T00:24:33.483Z,8.80
2023-02-06T00:27:02.969Z,10.20
2023-02-06T00:29:32.251Z,11.20
2023-02-06T00:32:01.366Z,15.50
2023-02-06T00:34:30.341Z,13.00
2023-02-06T00:36:59.337Z,15.70
2023-02-06T00:39:30.179Z,11.00
2023-02-06T00:41:59.289Z,13.20
2023-02-06T00:44:29.284Z,12.90
2023-02-06T00:46:59.208Z,9.50
2023-02-06T00:49:32.355Z,16.50
2023-02-06T00:52:01.274Z,12.00
2023-02-06T00:54:30.356Z,15.00
2023-02-06T00:56:58.856Z,12.70
2023-02-06T00:59:27.517Z,11.10
2023-02-06T01:01:56.666Z,11.80
2023-02-06T01:04:25.216Z,13.30
2023-02-06T01:07:02.614Z,13.30
2023-02-06T01:09:32.940Z,16.10
2023-02-06T01:12:01.827Z,15.50
2023-02-06T01:14:30.620Z,13.10
2023-02-06T01:16:59.394Z,12.80
2023-02-06T01:19:28.386Z,10.60
2023-02-06T01:21:57.758Z,9.60
2023-02-06T01:24:26.270Z,9.50
2023-02-06T01:26:55.816Z,7.40
2023-02-06T01:29:25.589Z,11.10
2023-02-06T01:31:54.559Z,11.00
2023-02-06T01:34:23.270Z,9.30
2023-02-06T01:36:52.571Z,9.00
2023-02-06T01:39:21.460Z,7.20
2023-02-06T01:41:51.370Z,7.80
2023-02-06T01:44:22.795Z,7.30
2023-02-06T01:46:53.582Z,8.40
2023-02-06T01:49:26.539Z,8.80
2023-02-06T01:52:08.138Z,6.80
2023-02-06T01:54:36.631Z,6.80
2023-02-06T01:57:07.144Z,6.80
2023-02-06T01:59:36.030Z,7.50
2023-02-06T02:02:05.540Z,7.00
2023-02-06T02:04:34.928Z,6.80
2023-02-06T02:07:08.958Z,7.10
2023-02-06T02:09:37.487Z,8.20
2023-02-06T02:12:09.574Z,9.10
2023-02-06T02:14:42.292Z,8.70
2023-02-06T02:17:33.498Z,8.70
2023-02-06T02:20:25.015Z,8.50
2023-02-06T02:22:53.802Z,8.30
2023-02-06T02:25:49.656Z,9.70
2023-02-06T02:28:27.639Z,9.40
2023-02-06T02:31:02.666Z,10.50
2023-02-06T02:33:50.323Z,9.50
2023-02-06T02:36:26.238Z,9.60
2023-02-06T02:39:13.579Z,9.30
2023-02-06T02:41:48.196Z,9.30
2023-02-06T02:44:57.153Z,8.60
2023-02-06T02:47:29.840Z,8.60
2023-02-06T02:50:00.685Z,9.40
2023-02-06T02:52:29.459Z,9.00
2023-02-06T02:54:58.594Z,9.20
2023-02-06T02:57:30.440Z,10.60
2023-02-06T02:59:59.989Z,9.20
2023-02-06T03:02:32.934Z,8.70
2023-02-06T03:05:04.664Z,9.40
2023-02-06T03:07:41.582Z,9.80
2023-02-06T03:10:19.816Z,7.90
2023-02-06T03:13:04.543Z,8.00
2023-02-06T03:15:37.113Z,9.90
2023-02-06T03:20:43.949Z,8.90
2023-02-06T03:23:17.844Z,8.00
2023-02-06T03:25:47.009Z,7.80
2023-02-06T03:28:24.088Z,8.40
2023-02-06T03:30:54.582Z,8.30
2023-02-06T03:33:27.924Z,9.60
2023-02-06T03:35:57.258Z,10.20
2023-02-06T03:38:28.605Z,10.90
2023-02-06T03:40:57.162Z,10.60
2023-02-06T03:43:26.188Z,9.00
2023-02-06T03:46:00.777Z,9.00
2023-02-06T03:48:34.305Z,8.90
2023-02-06T03:51:05.052Z,10.60
2023-02-06T03:53:35.570Z,11.40
2023-02-06T03:56:10.133Z,10.70
2023-02-06T03:58:39.111Z,11.00
2023-02-06T04:01:07.808Z,8.50
2023-02-06T04:03:36.630Z,9.30
2023-02-06T04:06:05.147Z,8.60
2023-02-06T04:08:36.404Z,9.70
2023-02-06T04:11:05.283Z,9.70
2023-02-06T04:13:34.891Z,8.50
2023-02-06T04:16:05.727Z,8.90
2023-02-06T04:18:34.411Z,9.70
2023-02-06T04:21:06.883Z,8.50
2023-02-06T04:23:35.475Z,9.60
2023-02-06T04:26:04.981Z,7.70
2023-02-06T04:28:33.674Z,9.80
2023-02-06T04:31:03.027Z,8.20
2023-02-06T04:33:32.364Z,9.40
2023-02-06T04:36:01.151Z,8.80
2023-02-06T04:38:30.457Z,8.60
2023-02-06T04:41:04.222Z,9.60
2023-02-06T04:43:33.965Z,8.40
2023-02-06T04:46:03.925Z,8.90
2023-02-06T04:48:33.793Z,8.90
2023-02-06T04:51:02.478Z,10.20
2023-02-06T04:53:32.394Z,9.10
2023-02-06T04:56:10.108Z,10.20
2023-02-06T04:58:39.603Z,9.20
2023-02-06T05:01:09.049Z,9.40
2023-02-06T05:03:37.782Z,9.20
2023-02-06T05:06:08.064Z,17.80
2023-02-06T05:08:36.691Z,10.50
2023-02-06T05:11:06.979Z,11.70
2023-02-06T05:13:36.724Z,11.80
2023-02-06T05:16:12.820Z,10.50
2023-02-06T05:18:42.490Z,11.20
2023-02-06T05:21:12.303Z,9.80
2023-02-06T05:23:41.191Z,9.70
2023-02-06T05:26:10.068Z,12.80
2023-02-06T05:28:38.973Z,9.60
2023-02-06T05:31:07.916Z,13.20
2023-02-06T05:33:36.770Z,59.90
2023-02-06T05:36:06.909Z,67.10
2023-02-06T05:38:36.308Z,76.30
2023-02-06T05:41:05.168Z,75.80
2023-02-06T05:43:34.680Z,72.70
2023-02-06T05:46:03.283Z,45.60
2023-02-06T05:48:35.357Z,33.30
2023-02-06T05:51:04.518Z,39.10
2023-02-06T05:53:33.431Z,48.30
2023-02-06T05:56:02.199Z,33.20
2023-02-06T05:58:31.507Z,27.10
2023-02-06T06:01:00.310Z,19.20
2023-02-06T06:03:29.073Z,16.40
2023-02-06T06:05:58.378Z,18.10
2023-02-06T06:08:27.163Z,12.70
2023-02-06T06:10:55.764Z,15.70
2023-02-06T06:13:24.539Z,17.40
2023-02-06T06:15:54.020Z,23.40
2023-02-06T06:18:23.135Z,19.70
2023-02-06T06:20:51.847Z,21.50
2023-02-06T06:23:21.434Z,28.10
2023-02-06T06:25:50.116Z,33.30
2023-02-06T06:28:19.640Z,23.10
2023-02-06T06:30:48.626Z,20.30
2023-02-06T06:33:18.115Z,19.70
2023-02-06T06:35:46.600Z,18.90
2023-02-06T06:38:15.597Z,22.00
2023-02-06T06:40:44.557Z,16.40
2023-02-06T06:43:13.169Z,13.60
2023-02-06T06:45:42.004Z,12.80
2023-02-06T06:48:11.256Z,15.60
2023-02-06T06:50:40.148Z,18.90
2023-02-06T06:53:08.760Z,16.50
2023-02-06T06:55:38.099Z,12.80
2023-02-06T06:58:08.160Z,10.70
2023-02-06T07:00:38.632Z,11.20
2023-02-06T07:03:08.180Z,9.30
2023-02-06T07:05:37.335Z,13.10
2023-02-06T07:08:07.983Z,13.90
2023-02-06T07:10:37.004Z,10.20
2023-02-06T07:13:06.814Z,9.90
2023-02-06T07:15:36.545Z,7.30
2023-02-06T07:18:06.133Z,10.00
2023-02-06T07:20:38.666Z,9.00
2023-02-06T07:23:07.928Z,8.40
2023-02-06T07:25:37.116Z,8.00
2023-02-06T07:28:05.913Z,9.60
2023-02-06T07:30:35.036Z,15.20
2023-02-06T07:33:05.623Z,9.60
2023-02-06T07:35:34.718Z,9.70
2023-02-06T07:38:03.451Z,8.80
2023-02-06T07:40:44.006Z,12.40
2023-02-06T07:43:14.290Z,10.00
2023-02-06T07:45:43.020Z,15.40
2023-02-06T07:48:11.596Z,20.60
2023-02-06T07:50:40.061Z,28.00
2023-02-06T07:53:08.631Z,23.10
2023-02-06T07:55:38.607Z,19.80
2023-02-06T07:58:07.395Z,13.10
2023-02-06T08:00:36.025Z,25.40
2023-02-06T08:03:05.430Z,11.40
2023-02-06T08:05:35.955Z,11.80
2023-02-06T08:08:06.860Z,11.10
2023-02-06T08:10:37.796Z,12.70
2023-02-06T08:13:26.061Z,9.10
2023-02-06T08:15:54.627Z,13.50
2023-02-06T08:18:23.738Z,10.60
2023-02-06T08:20:52.333Z,14.50
2023-02-06T08:23:21.217Z,13.10
2023-02-06T08:25:51.801Z,11.40
2023-02-06T08:28:20.421Z,13.50
2023-02-06T08:30:49.246Z,12.60
2023-02-06T08:33:17.868Z,13.50
2023-02-06T08:35:50.242Z,10.70
2023-02-06T08:38:19.121Z,14.40
2023-02-06T08:40:48.671Z,11.90
2023-02-06T08:43:17.982Z,14.40
2023-02-06T08:45:53.701Z,10.30
2023-02-06T08:48:22.470Z,13.00
2023-02-06T08:50:51.542Z,12.50
2023-02-06T08:53:20.675Z,16.90
2023-02-06T08:55:49.862Z,13.00
2023-02-06T08:58:18.717Z,14.40
2023-02-06T09:00:48.828Z,11.20
2023-02-06T09:03:17.506Z,6.80
2023-02-06T09:05:46.043Z,11.30
2023-02-06T09:08:14.760Z,10.30
2023-02-06T09:10:43.358Z,6.90
2023-02-06T09:13:12.124Z,11.50
2023-02-06T09:15:41.773Z,15.30
2023-02-06T09:18:11.256Z,18.90
2023-02-06T09:20:40.321Z,10.30
2023-02-06T09:23:12.489Z,14.40
2023-02-06T09:25:58.916Z,14.60
2023-02-06T09:28:30.943Z,13.10
2023-02-06T09:31:00.872Z,16.20
2023-02-06T09:33:29.867Z,15.00
2023-02-06T09:36:10.040Z,23.20
2023-02-06T09:38:41.475Z,19.00
2023-02-06T09:41:31.975Z,14.40
2023-02-06T09:44:15.918Z,16.20
2023-02-06T09:47:12.921Z,18.40
2023-02-06T09:49:49.814Z,17.90
2023-02-06T09:52:21.489Z,15.80
2023-02-06T09:55:08.847Z,17.10
2023-02-06T09:58:05.422Z,15.90
2023-02-06T10:00:43.181Z,10.60
2023-02-06T10:03:22.297Z,14.60
2023-02-06T10:06:09.503Z,13.00
2023-02-06T10:09:05.480Z,12.40
2023-02-06T10:11:46.119Z,16.00
2023-02-06T10:14:35.948Z,16.40
2023-02-06T10:17:18.927Z,13.90
2023-02-06T10:20:00.221Z,9.60
2023-02-06T10:22:32.777Z,14.40
2023-02-06T10:25:21.306Z,14.60
2023-02-06T10:27:55.273Z,14.70
2023-02-06T10:30:50.738Z,16.20
2023-02-06T10:33:58.153Z,11.50
2023-02-06T10:36:58.638Z,17.80
2023-02-06T10:39:54.917Z,7.50
2023-02-06T10:42:44.304Z,14.20
2023-02-06T10:45:20.695Z,11.50
2023-02-06T10:48:15.302Z,8.20
2023-02-06T10:51:18.238Z,12.60
2023-02-06T10:54:05.181Z,8.30
2023-02-06T10:56:41.965Z,7.20
2023-02-06T10:59:39.516Z,6.50
2023-02-06T11:02:12.127Z,6.80
2023-02-06T11:04:48.644Z,6.80
2023-02-06T11:07:48.466Z,7.00
2023-02-06T11:10:22.294Z,7.20
2023-02-06T11:13:03.790Z,9.00
2023-02-06T11:15:58.706Z,8.80
2023-02-06T11:18:32.354Z,21.10
2023-02-06T11:21:01.028Z,11.30
2023-02-06T11:23:31.091Z,16.40
2023-02-06T11:26:14.612Z,11.20
2023-02-06T11:31:38.524Z,12.20
2023-02-06T11:34:07.168Z,15.10
2023-02-06T11:36:36.989Z,16.40
2023-02-06T11:39:22.119Z,20.20
2023-02-06T11:42:20.801Z,21.60
2023-02-06T11:44:52.358Z,17.40
2023-02-06T11:47:35.066Z,11.30
2023-02-06T11:50:28.895Z,8.90
2023-02-06T11:53:15.495Z,6.50
2023-02-06T11:55:45.443Z,7.90
2023-02-06T11:58:14.324Z,7.30
2023-02-06T12:00:55.564Z,5.90
2023-02-06T12:03:27.060Z,6.00
2023-02-06T12:05:57.802Z,6.10
2023-02-06T12:08:35.519Z,6.50
2023-02-06T12:11:05.426Z,6.10
2023-02-06T12:13:39.801Z,6.10
2023-02-06T12:16:08.375Z,8.20
2023-02-06T12:18:40.139Z,6.60
2023-02-06T12:49:20.310Z,7.00
2023-02-06T12:51:56.469Z,7.00
2023-02-06T12:54:34.026Z,6.00
2023-02-06T12:57:12.483Z,8.00
2023-02-06T13:00:04.111Z,12.70
2023-02-06T13:02:45.989Z,19.40
2023-02-06T13:05:24.323Z,16.50
2023-02-06T13:07:53.137Z,16.80
2023-02-06T13:10:24.459Z,12.60
2023-02-06T13:12:54.916Z,14.50
2023-02-06T13:15:27.733Z,14.50
2023-02-06T13:17:58.842Z,12.50
2023-02-06T13:20:28.047Z,11.10
2023-02-06T13:23:12.629Z,14.00
2023-02-06T13:25:41.622Z,14.70
2023-02-06T13:28:22.066Z,13.30
2023-02-06T13:30:59.784Z,12.20
2023-02-06T13:33:39.844Z,9.70
2023-02-06T13:36:14.668Z,9.60
2023-02-06T13:38:44.193Z,13.20
2023-02-06T13:41:12.967Z,10.50
2023-02-06T13:49:57.402Z,11.00
2023-02-06T13:52:35.908Z,10.80
2023-02-06T13:55:23.453Z,10.00
2023-02-06T13:58:04.341Z,7.70
2023-02-06T14:00:33.275Z,7.80
2023-02-06T14:03:13.634Z,8.20
2023-02-06T14:05:54.083Z,8.50
2023-02-06T14:08:41.788Z,8.10
2023-02-06T14:11:16.947Z,7.40
2023-02-06T14:13:59.695Z,9.00
2023-02-06T14:16:50.380Z,9.80
2023-02-06T14:19:49.959Z,13.80
2023-02-06T14:22:42.640Z,12.90
2023-02-06T14:25:16.860Z,10.70
2023-02-06T14:28:10.567Z,8.00
2023-02-06T18:20:47.264Z,9.10
2023-02-06T18:23:15.845Z,8.60
2023-02-06T18:25:44.840Z,7.70
2023-02-06T18:28:15.499Z,8.00
2023-02-06T18:30:49.191Z,7.30
2023-02-06T18:33:18.458Z,7.50
2023-02-06T18:35:51.037Z,8.10
2023-02-06T18:38:19.924Z,8.20
2023-02-06T18:40:53.271Z,7.20
2023-02-06T18:43:21.722Z,7.30
2023-02-06T18:45:50.123Z,6.80
2023-02-06T18:48:19.748Z,6.90
2023-02-06T18:50:49.084Z,6.40
2023-02-06T18:53:17.882Z,6.40
2023-02-06T18:55:57.723Z,6.00
2023-02-06T18:58:26.206Z,6.50
2023-02-06T19:00:54.907Z,6.20
2023-02-06T19:03:23.876Z,7.10
2023-02-06T19:05:53.493Z,6.30
2023-02-06T19:08:22.380Z,6.90
2023-02-06T19:10:51.178Z,6.40
2023-02-06T19:13:20.030Z,6.10
2023-02-06T19:15:48.626Z,6.80
2023-02-06T19:18:19.751Z,6.30
2023-02-06T19:20:52.874Z,6.70
2023-02-06T19:23:21.737Z,7.10
2023-02-06T19:25:50.261Z,6.40
2023-02-06T19:28:18.931Z,6.00
2023-02-06T19:30:47.741Z,6.80
2023-02-06T19:33:17.055Z,5.90
2023-02-06T19:35:45.921Z,7.00
2023-02-06T19:38:15.207Z,7.00
2023-02-06T19:40:45.341Z,7.20
2023-02-06T19:43:15.020Z,7.20
2023-02-06T19:45:43.540Z,6.90
2023-02-06T19:48:14.992Z,7.10
2023-02-06T19:50:43.956Z,5.90
2023-02-06T19:53:15.553Z,6.90
2023-02-06T19:55:48.978Z,6.90
2023-02-06T19:58:17.940Z,6.00
2023-02-06T20:00:46.816Z,6.80
2023-02-06T20:03:15.723Z,6.40
2023-02-06T20:05:45.181Z,6.70
2023-02-06T20:08:14.072Z,7.30
2023-02-06T20:10:43.066Z,5.50
2023-02-06T20:13:11.652Z,6.80
2023-02-06T20:15:40.552Z,7.40
2023-02-06T20:18:09.128Z,7.00
2023-02-06T20:20:38.525Z,6.70
2023-02-06T20:23:07.624Z,7.70
2023-02-06T20:25:37.564Z,7.50
2023-02-06T20:28:06.255Z,7.20
2023-02-06T20:30:35.707Z,7.20
2023-02-06T20:33:05.133Z,8.20
2023-02-06T20:35:33.718Z,9.00
2023-02-06T20:38:02.469Z,8.30
2023-02-06T20:40:31.437Z,8.80
2023-02-06T20:43:00.097Z,9.90
2023-02-06T20:45:28.796Z,8.30
2023-02-06T20:47:57.565Z,7.70
2023-02-06T20:50:29.153Z,7.00
2023-02-06T20:52:58.507Z,7.80
2023-02-06T20:55:27.291Z,8.80
2023-02-06T20:57:56.226Z,8.50
2023-02-06T21:00:24.638Z,8.40
2023-02-06T21:02:53.691Z,9.00
2023-02-06T21:05:22.261Z,8.10
2023-02-06T21:07:50.977Z,8.20
2023-02-06T21:10:20.254Z,8.60
2023-02-06T21:12:48.851Z,8.00
2023-02-06T21:15:17.426Z,8.40
2023-02-06T21:17:46.544Z,7.10
2023-02-06T21:20:16.519Z,8.00
2023-02-06T21:22:44.987Z,8.70
2023-02-06T21:25:13.879Z,6.80
2023-02-06T21:27:42.568Z,7.10
2023-02-06T21:30:12.585Z,7.90
2023-02-06T21:32:41.273Z,6.90
2023-02-06T21:35:10.775Z,7.40
2023-02-06T21:37:39.255Z,7.40
2023-02-06T21:40:08.553Z,6.60
2023-02-06T21:42:38.264Z,6.80
2023-02-06T21:45:07.880Z,5.90
2023-02-06T21:47:37.685Z,5.00
2023-02-06T21:50:08.291Z,4.70
2023-02-06T21:52:38.014Z,5.40
2023-02-06T21:55:07.717Z,5.20
2023-02-06T21:57:36.930Z,5.30
2023-02-06T22:00:06.083Z,5.60
2023-02-06T22:02:41.548Z,4.50
2023-02-06T22:05:10.496Z,5.50
2023-02-06T22:07:39.000Z,5.70
2023-02-06T22:10:09.421Z,5.60
